createdAt,value
2017-01-12T17:36:06.820Z,943.6
2017-01-12T17:37:06.835Z,943.57
2017-01-12T17:38:06.853Z,943.55
2017-01-12T17:39:06.865Z,943.54
2017-01-12T17:40:06.880Z,943.53
2017-01-12T17:41:06.895Z,943.48
2017-01-12T17:42:06.912Z,943.47
2017-01-12T17:43:06.926Z,943.42
2017-01-12T17:44:06.942Z,943.42
2017-01-12T17:45:06.958Z,943.43
2017-01-12T17:46:06.992Z,943.35
2017-01-12T17:47:06.987Z,943.38
2017-01-12T17:48:07.005Z,943.34
2017-01-12T17:49:07.020Z,943.32
2017-01-12T17:50:07.033Z,943.3
2017-01-12T17:51:07.049Z,943.26
2017-01-12T17:52:07.065Z,943.22
2017-01-12T17:53:07.081Z,943.2
2017-01-12T17:54:07.096Z,943.19
2017-01-12T17:55:07.111Z,943.18
2017-01-12T17:56:07.126Z,943.11
2017-01-12T17:57:07.144Z,943.09
2017-01-12T17:58:07.157Z,943.07
2017-01-12T17:59:07.173Z,943.06
2017-01-12T18:00:07.188Z,942.95
2017-01-12T18:01:07.203Z,942.91
2017-01-12T18:02:07.218Z,942.87
2017-01-12T18:03:07.235Z,942.84
2017-01-12T18:04:07.250Z,942.83
2017-01-12T18:05:07.264Z,942.78
2017-01-12T18:06:07.281Z,942.77
2017-01-12T18:07:07.296Z,942.7
2017-01-12T18:08:07.363Z,942.7
2017-01-12T18:09:07.326Z,942.68
2017-01-12T18:10:07.343Z,942.62
2017-01-12T18:11:07.357Z,942.58
2017-01-12T18:12:07.372Z,942.58
2017-01-12T18:13:07.390Z,942.51
2017-01-12T18:14:07.413Z,942.47
2017-01-12T18:15:07.418Z,942.43
2017-01-12T18:16:07.434Z,942.4
2017-01-12T18:17:07.449Z,942.36
2017-01-12T18:18:07.464Z,942.3
2017-01-12T18:19:07.528Z,942.32
2017-01-12T18:20:07.494Z,942.23
2017-01-12T18:21:07.511Z,942.17
2017-01-12T18:22:07.541Z,942.16
2017-01-12T18:23:07.540Z,942.1
2017-01-12T18:24:07.556Z,942.1
2017-01-12T18:25:07.571Z,942.04
2017-01-12T18:26:07.587Z,942.04
2017-01-12T18:27:07.601Z,941.99
2017-01-12T18:28:07.616Z,941.97
2017-01-12T18:29:07.631Z,941.93
2017-01-12T18:30:07.648Z,941.96
2017-01-12T18:31:07.661Z,941.96
2017-01-12T18:32:07.677Z,941.95
2017-01-12T18:33:07.691Z,941.9
2017-01-12T18:34:07.707Z,941.87
2017-01-12T18:35:07.722Z,941.8
2017-01-12T18:36:07.737Z,941.74
2017-01-12T18:37:07.755Z,941.71
2017-01-12T18:38:07.794Z,941.68
2017-01-12T18:39:07.784Z,941.69
2017-01-12T18:40:07.799Z,941.62
2017-01-12T18:41:07.813Z,941.65
2017-01-12T18:42:07.826Z,941.54
2017-01-12T18:43:07.843Z,941.52
2017-01-12T18:44:07.860Z,941.47
2017-01-12T18:45:07.873Z,941.42
2017-01-12T18:46:07.887Z,941.34
2017-01-12T18:47:07.902Z,941.36
2017-01-12T18:48:07.918Z,941.31
2017-01-12T18:49:07.933Z,941.28
2017-01-12T18:50:07.949Z,941.27
2017-01-12T18:51:07.964Z,941.2
2017-01-12T18:52:07.977Z,941.19
2017-01-12T18:53:07.993Z,941.07
2017-01-12T18:54:08.009Z,941.01
2017-01-12T18:55:08.023Z,941.02
2017-01-12T18:56:08.039Z,941
2017-01-12T18:57:08.064Z,940.96
2017-01-12T18:58:08.184Z,940.95
2017-01-12T18:59:08.101Z,940.9
2017-01-12T19:00:08.099Z,940.82
2017-01-12T19:01:08.116Z,940.79
2017-01-12T19:02:08.130Z,940.73
2017-01-12T19:03:08.149Z,940.76
2017-01-12T19:04:08.159Z,940.75
2017-01-12T19:05:08.176Z,940.75
2017-01-12T19:06:08.195Z,940.77
2017-01-12T19:07:08.205Z,940.64
2017-01-12T19:08:08.221Z,940.56
2017-01-12T19:09:08.236Z,940.56
2017-01-12T19:10:08.252Z,940.54
2017-01-12T19:11:08.267Z,940.53
2017-01-12T19:12:08.331Z,940.56
2017-01-12T19:13:08.298Z,940.51
2017-01-12T19:14:08.312Z,940.47
2017-01-12T19:15:08.327Z,940.44
2017-01-12T19:16:08.343Z,940.43
2017-01-12T19:17:08.408Z,940.41
2017-01-12T19:18:08.373Z,940.37
2017-01-12T19:19:08.389Z,940.4
2017-01-12T19:20:08.404Z,940.33
2017-01-12T19:21:08.419Z,940.32
2017-01-12T19:22:08.436Z,940.28
2017-01-12T19:23:08.449Z,940.25
2017-01-12T19:24:08.464Z,940.22
2017-01-12T19:25:08.681Z,940.15
2017-01-12T19:26:08.494Z,940.14
2017-01-12T19:27:08.510Z,940.13
2017-01-12T19:28:08.527Z,940.09
2017-01-12T19:29:08.541Z,940.04
2017-01-12T19:30:08.556Z,940
2017-01-12T19:31:08.571Z,939.94
2017-01-12T19:32:08.586Z,939.93
2017-01-12T19:33:08.601Z,939.89
2017-01-12T19:34:08.617Z,939.83
2017-01-12T19:35:08.632Z,939.82
2017-01-12T19:36:08.647Z,939.79
2017-01-12T19:37:08.665Z,939.74
2017-01-12T19:38:08.679Z,939.74
2017-01-12T19:39:08.694Z,939.66
2017-01-12T19:40:08.708Z,939.61
2017-01-12T19:41:08.724Z,939.61
2017-01-12T19:42:08.740Z,939.51
2017-01-12T19:43:08.755Z,939.51
2017-01-12T19:44:08.770Z,939.47
2017-01-12T19:45:08.785Z,939.48
2017-01-12T19:46:08.801Z,939.45
2017-01-12T19:47:08.815Z,939.38
2017-01-12T19:48:08.830Z,939.32
2017-01-12T19:49:08.847Z,939.31
2017-01-12T19:50:08.863Z,939.27
2017-01-12T19:51:08.876Z,939.21
2017-01-12T19:52:08.891Z,939.2
2017-01-12T19:53:08.907Z,939.19
2017-01-12T19:54:08.921Z,939.17
2017-01-12T19:55:08.937Z,939.12
2017-01-12T19:56:08.955Z,939.06
2017-01-12T19:57:08.968Z,938.97
2017-01-12T19:58:08.983Z,938.94
2017-01-12T19:59:08.998Z,938.96
2017-01-12T20:00:09.014Z,938.91
2017-01-12T20:01:09.028Z,938.87
2017-01-12T20:02:09.044Z,938.86
2017-01-12T20:03:09.109Z,938.86
2017-01-12T20:04:09.074Z,938.77
2017-01-12T20:05:09.089Z,938.73
2017-01-12T20:06:09.104Z,938.66
2017-01-12T20:07:09.120Z,938.64
2017-01-12T20:08:09.135Z,938.61
2017-01-12T20:09:09.150Z,938.54
2017-01-12T20:10:09.166Z,938.52
2017-01-12T20:11:09.180Z,938.49
2017-01-12T20:12:09.212Z,938.47
2017-01-12T20:13:09.259Z,938.4
2017-01-12T20:14:09.224Z,938.43
2017-01-12T20:15:09.239Z,938.38
2017-01-12T20:16:09.255Z,938.35
2017-01-12T20:17:09.270Z,938.33
2017-01-12T20:18:09.385Z,938.28
2017-01-12T20:19:09.301Z,938.19
2017-01-12T20:20:09.315Z,938.22
2017-01-12T20:21:09.330Z,938.15
2017-01-12T20:22:09.346Z,938.09
2017-01-12T20:23:09.361Z,937.98
2017-01-12T20:24:09.375Z,937.97
2017-01-12T20:25:09.389Z,937.92
2017-01-12T20:26:09.406Z,937.93
2017-01-12T20:27:09.420Z,937.87
2017-01-12T20:28:09.435Z,937.85
2017-01-12T20:29:09.453Z,937.79
2017-01-12T20:30:09.466Z,937.79
2017-01-12T20:31:09.480Z,937.72
2017-01-12T20:32:09.496Z,937.68
2017-01-12T20:33:09.512Z,937.66
2017-01-12T20:34:09.527Z,937.63
2017-01-12T20:35:09.540Z,937.63
2017-01-12T20:36:09.558Z,937.57
2017-01-12T20:37:09.572Z,937.51
2017-01-12T20:38:09.586Z,937.49
2017-01-12T20:39:09.602Z,937.46
2017-01-12T20:40:09.617Z,937.36
2017-01-12T20:41:09.632Z,937.34
2017-01-12T20:42:09.648Z,937.27
2017-01-12T20:43:09.661Z,937.27
2017-01-12T20:44:09.677Z,937.28
2017-01-12T20:45:09.692Z,937.2
2017-01-12T20:46:09.757Z,937.2
2017-01-12T20:47:09.723Z,937.19
2017-01-12T20:48:09.739Z,937.11
2017-01-12T20:49:09.753Z,937.07
2017-01-12T20:50:09.768Z,937.01
2017-01-12T20:51:09.883Z,936.99
2017-01-12T20:52:09.798Z,936.93
2017-01-12T20:53:09.812Z,936.92
2017-01-12T20:54:09.827Z,936.92
2017-01-12T20:55:09.844Z,936.87
2017-01-12T20:56:09.857Z,936.89
2017-01-12T20:57:09.872Z,936.84
2017-01-12T20:58:09.888Z,936.8
2017-01-12T20:59:09.904Z,936.82
2017-01-12T21:00:09.917Z,936.76
2017-01-12T21:01:09.933Z,936.76
2017-01-12T21:02:09.949Z,936.75
2017-01-12T21:03:09.973Z,936.75
2017-01-12T21:04:09.977Z,936.65
2017-01-12T21:05:09.993Z,936.62
2017-01-12T21:06:10.010Z,936.61
2017-01-12T21:07:10.023Z,936.53
2017-01-12T21:08:10.037Z,936.56
2017-01-12T21:09:10.103Z,936.54
2017-01-12T21:10:10.068Z,936.51
2017-01-12T21:11:10.081Z,936.5
2017-01-12T21:12:10.097Z,936.56
2017-01-12T21:13:10.112Z,936.5
2017-01-12T21:14:10.127Z,936.4
2017-01-12T21:15:10.173Z,936.38
2017-01-12T21:16:10.156Z,936.41
2017-01-12T21:17:10.173Z,936.36
2017-01-12T21:18:10.185Z,936.37
2017-01-12T21:19:10.199Z,936.35
2017-01-12T21:20:10.215Z,936.39
2017-01-12T21:21:10.230Z,936.34
2017-01-12T21:22:10.244Z,936.4
2017-01-12T21:23:10.261Z,936.34
2017-01-12T21:24:10.274Z,936.37
2017-01-12T21:25:10.289Z,936.36
2017-01-12T21:26:10.303Z,936.32
2017-01-12T21:27:10.318Z,936.32
2017-01-12T21:28:10.334Z,936.28
2017-01-12T21:29:10.346Z,936.19
2017-01-12T21:30:10.361Z,936.23
2017-01-12T21:31:10.375Z,936.23
2017-01-12T21:32:10.391Z,936.15
2017-01-12T21:33:10.405Z,936.09
2017-01-12T21:34:10.422Z,936.05
2017-01-12T21:35:10.435Z,936.05
2017-01-12T21:36:10.449Z,936
2017-01-12T21:37:10.463Z,936
2017-01-12T21:38:10.477Z,936.07
2017-01-12T21:39:10.492Z,936.09
2017-01-12T21:40:10.506Z,936.11
2017-01-12T21:41:10.520Z,936.11
2017-01-12T21:42:10.535Z,936.16
2017-01-12T21:43:10.601Z,936.18
2017-01-12T21:44:10.563Z,936.17
2017-01-12T21:45:10.578Z,936.16
2017-01-12T21:46:10.592Z,936.11
2017-01-12T21:47:10.607Z,936.09
2017-01-12T21:48:10.670Z,936.08
2017-01-12T21:49:10.637Z,936.08
2017-01-12T21:50:10.690Z,936.07
2017-01-12T21:51:10.663Z,936.09
2017-01-12T21:52:10.912Z,936.05
2017-01-12T21:53:10.742Z,936.09
2017-01-12T21:54:10.748Z,936.05
2017-01-12T21:55:10.756Z,936.09
2017-01-12T21:56:10.778Z,936.04
2017-01-12T21:57:10.881Z,935.99
2017-01-12T21:58:10.765Z,935.99
2017-01-12T21:59:10.851Z,935.98
2017-01-12T22:00:10.835Z,936
2017-01-12T22:01:10.824Z,935.95
2017-01-12T22:02:10.821Z,935.93
2017-01-12T22:03:10.835Z,935.96
2017-01-12T22:04:10.851Z,935.9
2017-01-12T22:05:10.865Z,935.85
2017-01-12T22:06:10.879Z,935.81
2017-01-12T22:07:10.894Z,935.83
2017-01-12T22:08:10.907Z,935.91
2017-01-12T22:09:11.155Z,936
2017-01-12T22:10:10.936Z,936.05
2017-01-12T22:11:10.952Z,936.13
2017-01-12T22:12:10.966Z,936.11
2017-01-12T22:13:10.979Z,936.1
2017-01-12T22:14:10.994Z,936.07
2017-01-12T22:15:11.010Z,936.04
2017-01-12T22:16:11.024Z,935.98
2017-01-12T22:17:11.037Z,935.92
2017-01-12T22:18:11.052Z,935.79
2017-01-12T22:19:11.067Z,935.68
2017-01-12T22:20:11.084Z,935.59
2017-01-12T22:21:11.095Z,935.56
2017-01-12T22:22:11.113Z,935.5
2017-01-12T22:23:11.150Z,935.54
2017-01-12T22:24:11.140Z,935.64
2017-01-12T22:25:11.155Z,935.65
2017-01-12T22:26:11.170Z,935.77
2017-01-12T22:27:11.184Z,935.77
2017-01-12T22:28:11.199Z,935.76
2017-01-12T22:29:11.212Z,935.73
2017-01-12T22:30:11.233Z,935.76
2017-01-12T22:31:11.241Z,935.79
2017-01-12T22:32:11.256Z,935.83
2017-01-12T22:33:11.269Z,935.91
2017-01-12T22:34:11.284Z,935.95
2017-01-12T22:35:11.299Z,935.94
2017-01-12T22:36:11.364Z,935.95
2017-01-12T22:37:11.346Z,935.97
2017-01-12T22:38:11.344Z,936.08
2017-01-12T22:39:11.369Z,936.11
2017-01-12T22:40:11.372Z,935.99
2017-01-12T22:41:11.386Z,935.88
2017-01-12T22:42:11.401Z,935.8
2017-01-12T22:43:11.432Z,935.78
2017-01-12T22:44:11.444Z,935.77
2017-01-12T22:45:11.445Z,935.69
2017-01-12T22:46:11.458Z,935.55
2017-01-12T22:47:11.474Z,935.5
2017-01-12T22:48:11.488Z,935.41
2017-01-12T22:49:11.504Z,935.43
2017-01-12T22:50:11.517Z,935.47
2017-01-12T22:51:11.532Z,935.5
2017-01-12T22:52:11.564Z,935.47
2017-01-12T22:53:11.560Z,935.41
2017-01-12T22:54:11.578Z,935.39
2017-01-12T22:55:11.606Z,935.32
2017-01-12T22:56:11.675Z,935.24
2017-01-12T22:57:11.619Z,935.19
2017-01-12T22:58:11.633Z,935.09
2017-01-12T22:59:11.676Z,935.03
2017-01-12T23:00:11.663Z,935.06
2017-01-12T23:01:11.677Z,935.09
2017-01-12T23:02:11.694Z,935.13
2017-01-12T23:03:11.710Z,935.11
2017-01-12T23:04:11.720Z,935.11
2017-01-12T23:05:11.738Z,935.14
2017-01-12T23:06:11.750Z,935.14
2017-01-12T23:07:11.820Z,935.14
2017-01-12T23:08:11.779Z,935.09
2017-01-12T23:09:11.795Z,935.05
2017-01-12T23:10:11.807Z,934.99
2017-01-12T23:11:11.823Z,934.96
2017-01-12T23:12:11.888Z,934.98
2017-01-12T23:13:11.851Z,934.98
2017-01-12T23:14:11.866Z,934.96
2017-01-12T23:15:11.881Z,934.95
2017-01-12T23:16:11.895Z,934.93
2017-01-12T23:17:11.909Z,934.91
2017-01-12T23:18:11.924Z,934.99
2017-01-12T23:19:11.938Z,934.99
2017-01-12T23:20:11.953Z,934.87
2017-01-12T23:21:11.981Z,934.79
2017-01-12T23:22:11.983Z,934.7
2017-01-12T23:23:11.996Z,934.73
2017-01-12T23:24:12.016Z,934.69
2017-01-12T23:25:12.026Z,934.79
2017-01-12T23:26:12.040Z,934.84
2017-01-12T23:27:12.054Z,934.72
2017-01-12T23:28:12.185Z,934.74
2017-01-12T23:29:12.084Z,934.73
2017-01-12T23:30:12.098Z,934.74
2017-01-12T23:31:12.113Z,934.65
2017-01-12T23:32:12.177Z,934.61
2017-01-12T23:33:12.142Z,934.51
2017-01-12T23:34:12.155Z,934.51
2017-01-12T23:35:12.170Z,934.55
2017-01-12T23:36:12.185Z,934.48
2017-01-12T23:37:12.199Z,934.37
2017-01-12T23:38:12.214Z,934.38
2017-01-12T23:39:12.228Z,934.32
2017-01-12T23:40:12.241Z,934.32
2017-01-12T23:41:12.256Z,934.29
2017-01-12T23:42:12.270Z,934.25
2017-01-12T23:43:12.288Z,934.19
2017-01-12T23:44:12.300Z,934.21
2017-01-12T23:45:12.314Z,934.2
2017-01-12T23:46:12.328Z,934.2
2017-01-12T23:47:12.343Z,934.21
2017-01-12T23:48:12.356Z,934.11
2017-01-12T23:49:12.370Z,934.1
2017-01-12T23:50:12.391Z,934.07
2017-01-12T23:51:12.399Z,934.04
2017-01-12T23:52:12.413Z,934.02
2017-01-12T23:53:12.428Z,933.94
2017-01-12T23:54:12.443Z,933.91
2017-01-12T23:55:12.456Z,933.89
2017-01-12T23:56:12.471Z,933.88
2017-01-12T23:57:12.486Z,933.84
2017-01-12T23:58:12.552Z,933.87
2017-01-12T23:59:12.513Z,933.87
